Time;durP1;ratioP1;P1;durP2;ratioP2;P2;SDS_P1;SDS_P2;PMS_P1;PMS_P2;Temp;Humidity;BMP_temperature;BMP_pressure;BME280_temperature;BME280_humidity;BME280_pressure;Samples;Min_cycle;Max_cycle;Signal;HPM_P1;HPM_P2
2021/08/04 00:01:56;;;;;;;5.37;2.03;;;;;;;14.22;98.13;96045.94;5074501;28;20035;-77
2021/08/04 00:04:21;;;;;;;5.33;2.73;;;;;;;14.16;98.83;96051.97;5064992;28;20382;-77
2021/08/04 00:06:47;;;;;;;4.13;2.23;;;;;;;14.18;98.51;96049.94;5081675;28;20758;-78
2021/08/04 00:09:13;;;;;;;4.70;2.60;;;;;;;14.18;100.00;96057.88;5075081;28;20055;-78
2021/08/04 00:11:39;;;;;;;4.43;2.50;;;;;;;14.14;100.00;96060.06;5080938;28;20036;-78
2021/08/04 00:14:05;;;;;;;5.40;2.47;;;;;;;14.05;100.00;96063.84;5081404;28;20827;-78
2021/08/04 00:16:31;;;;;;;4.93;2.53;;;;;;;14.05;100.00;96063.00;5080065;28;20506;-78
2021/08/04 00:18:57;;;;;;;3.90;2.27;;;;;;;13.99;100.00;96069.06;5072323;28;20112;-78
2021/08/04 00:21:24;;;;;;;5.50;2.30;;;;;;;13.89;100.00;96069.31;5076929;28;20138;-78
2021/08/04 00:23:50;;;;;;;4.53;2.30;;;;;;;13.83;100.00;96070.06;5068449;28;20021;-80
2021/08/04 00:26:15;;;;;;;3.70;2.20;;;;;;;13.81;100.00;96072.88;5076087;28;20456;-78
2021/08/04 00:28:41;;;;;;;4.13;2.03;;;;;;;13.85;100.00;96063.59;5077654;28;20090;-77
2021/08/04 00:31:07;;;;;;;4.97;1.90;;;;;;;13.77;100.00;96061.03;5062092;28;20032;-78
2021/08/04 00:33:32;;;;;;;7.50;2.60;;;;;;;13.79;100.00;96064.31;5070317;28;20073;-78
2021/08/04 00:35:58;;;;;;;3.90;2.40;;;;;;;13.78;100.00;96067.97;5064223;28;20028;-78
2021/08/04 00:38:24;;;;;;;6.47;2.40;;;;;;;13.76;100.00;96063.88;5071381;28;20089;-77
2021/08/04 00:40:50;;;;;;;5.00;2.77;;;;;;;13.75;100.00;96073.63;5073099;28;20067;-77
2021/08/04 00:43:16;;;;;;;3.37;2.30;;;;;;;13.72;100.00;96066.06;5046120;28;20048;-78
2021/08/04 00:45:42;;;;;;;4.77;2.10;;;;;;;13.74;100.00;96068.50;5069677;28;20071;-78
2021/08/04 00:48:08;;;;;;;5.27;2.20;;;;;;;13.71;100.00;96068.88;5083814;28;20128;-78
2021/08/04 00:50:34;;;;;;;7.03;2.80;;;;;;;13.68;100.00;96062.13;5069347;28;20469;-77
2021/08/04 00:53:00;;;;;;;5.00;2.50;;;;;;;13.70;100.00;96060.13;5074018;28;20031;-78
2021/08/04 00:55:27;;;;;;;3.67;2.37;;;;;;;13.70;100.00;96062.78;5079609;28;20523;-78
2021/08/04 00:57:54;;;;;;;5.07;2.73;;;;;;;13.68;100.00;96075.34;5069732;28;20063;-79
2021/08/04 01:00:19;;;;;;;4.87;2.40;;;;;;;13.69;100.00;96063.78;5064675;28;20086;-79
2021/08/04 01:03:00;;;;;;;5.90;2.40;;;;;;;13.70;100.00;96065.41;5081996;28;20042;-79
2021/08/04 01:05:38;;;;;;;4.23;2.30;;;;;;;13.65;100.00;96062.50;5074794;28;20525;-78
2021/08/04 01:08:08;;;;;;;6.43;2.63;;;;;;;13.72;100.00;96059.97;5069898;28;20027;-78
2021/08/04 01:10:42;;;;;;;4.60;2.43;;;;;;;13.68;100.00;96068.25;5077018;28;20036;-78
2021/08/04 01:13:34;;;;;;;7.70;3.23;;;;;;;13.73;100.00;96058.94;5054821;28;20420;-78
2021/08/04 01:16:04;;;;;;;5.80;2.47;;;;;;;13.74;100.00;96058.75;5051615;28;20040;-78
2021/08/04 01:18:40;;;;;;;6.80;3.00;;;;;;;13.78;100.00;96064.47;5062085;28;20512;-78
2021/08/04 01:21:08;;;;;;;4.70;2.90;;;;;;;13.70;100.00;96061.94;5072627;28;20024;-78
2021/08/04 01:23:47;;;;;;;4.63;2.50;;;;;;;13.60;100.00;96064.88;5071225;28;20031;-78
2021/08/04 01:26:27;;;;;;;4.07;2.47;;;;;;;13.53;100.00;96059.47;5079366;28;20039;-77
2021/08/04 01:28:56;;;;;;;4.20;2.60;;;;;;;13.54;100.00;96060.31;5079025;28;20469;-80
2021/08/04 01:31:27;;;;;;;5.03;2.63;;;;;;;13.44;100.00;96060.56;5070660;28;20115;-78
2021/08/04 01:33:54;;;;;;;4.40;2.30;;;;;;;13.49;100.00;96058.22;5056123;28;20024;-78
2021/08/04 01:36:22;;;;;;;4.67;2.30;;;;;;;13.40;100.00;96059.28;5076537;28;20033;-78
2021/08/04 01:38:48;;;;;;;4.87;2.20;;;;;;;13.49;100.00;96054.75;5079274;28;20047;-78
2021/08/04 01:41:17;;;;;;;5.60;2.47;;;;;;;13.50;100.00;96059.03;5073587;28;20060;-78
2021/08/04 01:43:44;;;;;;;5.07;2.70;;;;;;;13.55;100.00;96046.94;5079044;28;20059;-78
2021/08/04 01:46:12;;;;;;;4.47;2.20;;;;;;;13.56;100.00;96047.75;5079662;28;20049;-77
2021/08/04 01:48:40;;;;;;;5.37;2.23;;;;;;;13.59;100.00;96034.16;5072085;28;20063;-78
2021/08/04 01:51:08;;;;;;;3.77;2.17;;;;;;;13.58;100.00;96048.34;5060904;28;20061;-78
2021/08/04 01:53:35;;;;;;;4.10;2.17;;;;;;;13.58;100.00;96046.56;5068775;28;20032;-78
2021/08/04 01:56:01;;;;;;;3.73;1.90;;;;;;;13.53;100.00;96053.38;5074666;28;20382;-78
2021/08/04 01:58:27;;;;;;;3.40;1.90;;;;;;;13.43;100.00;96051.81;5057033;28;20029;-78
2021/08/04 02:00:53;;;;;;;4.00;2.07;;;;;;;13.32;100.00;96051.47;5074183;28;20039;-78
2021/08/04 02:03:18;;;;;;;5.03;2.40;;;;;;;13.37;100.00;96049.91;5074419;28;20043;-77
2021/08/04 02:05:46;;;;;;;7.67;2.30;;;;;;;13.34;100.00;96054.72;5064010;28;20534;-78
2021/08/04 02:08:30;;;;;;;3.87;2.10;;;;;;;13.38;100.00;96043.63;5076830;28;20028;-78
2021/08/04 02:11:15;;;;;;;4.83;2.07;;;;;;;13.43;100.00;96043.91;5068276;28;20236;-77
2021/08/04 02:13:45;;;;;;;3.30;2.07;;;;;;;13.32;100.00;96048.81;5057692;28;20123;-78
2021/08/04 02:16:48;;;;;;;3.37;2.00;;;;;;;13.26;100.00;96045.06;5051405;28;20361;-78
2021/08/04 02:19:24;;;;;;;4.03;1.92;;;;;;;13.28;100.00;96048.38;5069576;28;20030;-78
2021/08/04 02:21:57;;;;;;;5.27;2.00;;;;;;;13.25;100.00;96046.09;5076760;28;20041;-77
2021/08/04 02:24:25;;;;;;;2.95;1.73;;;;;;;13.20;100.00;96056.31;5083913;28;20036;-77
2021/08/04 02:26:54;;;;;;;6.33;2.20;;;;;;;13.24;100.00;96049.72;5074767;28;20101;-77
2021/08/04 02:29:21;;;;;;;4.60;1.93;;;;;;;13.33;100.00;96043.34;5064076;28;20056;-77
2021/08/04 02:31:48;;;;;;;4.50;2.20;;;;;;;13.28;100.00;96048.38;5080571;28;20501;-78
2021/08/04 02:34:15;;;;;;;4.47;2.10;;;;;;;13.36;100.00;96053.56;5065598;28;20023;-77
2021/08/04 02:36:41;;;;;;;3.77;1.97;;;;;;;13.39;100.00;96055.03;5068385;28;20033;-77
2021/08/04 02:39:07;;;;;;;3.93;2.40;;;;;;;13.39;100.00;96049.75;5076921;28;20497;-77
2021/08/04 02:41:33;;;;;;;3.80;2.17;;;;;;;13.40;100.00;96049.53;5083611;28;20024;-77
2021/08/04 02:44:04;;;;;;;3.30;1.80;;;;;;;13.38;100.00;96051.56;5066913;28;20106;-77
2021/08/04 02:46:30;;;;;;;3.57;1.83;;;;;;;13.37;100.00;96049.91;5065412;28;20043;-77
2021/08/04 02:48:57;;;;;;;6.60;1.80;;;;;;;13.36;100.00;96045.63;5078491;28;20052;-77
2021/08/04 02:51:24;;;;;;;4.20;2.20;;;;;;;13.41;100.00;96051.22;5079749;28;20055;-77
2021/08/04 02:53:57;;;;;;;3.87;2.00;;;;;;;13.39;100.00;96047.09;5077827;28;20077;-77
2021/08/04 02:56:24;;;;;;;3.88;2.10;;;;;;;13.33;100.00;96043.34;5078935;28;20038;-78
2021/08/04 02:58:50;;;;;;;4.77;2.23;;;;;;;13.41;100.00;96038.00;5072049;28;20055;-78
2021/08/04 03:01:16;;;;;;;3.87;2.30;;;;;;;13.40;100.00;96043.44;5076212;28;20127;-77
2021/08/04 03:03:42;;;;;;;4.17;2.40;;;;;;;13.41;100.00;96043.28;5051102;28;20562;-77
2021/08/04 03:06:08;;;;;;;5.00;2.10;;;;;;;13.40;100.00;96038.16;5069782;28;20097;-79
2021/08/04 03:08:34;;;;;;;5.07;2.33;;;;;;;13.39;100.00;96029.44;5080534;28;20035;-78
2021/08/04 03:11:00;;;;;;;4.07;2.07;;;;;;;13.38;100.00;96041.00;5053883;28;20020;-77
2021/08/04 03:13:27;;;;;;;5.27;2.33;;;;;;;13.36;100.00;96042.19;5076833;28;20416;-77
2021/08/04 03:15:54;;;;;;;5.27;2.40;;;;;;;13.33;100.00;96040.72;5071327;28;20082;-77
2021/08/04 03:18:20;;;;;;;5.30;2.17;;;;;;;13.33;100.00;96032.78;5076072;28;20039;-77
2021/08/04 03:20:46;;;;;;;3.93;2.23;;;;;;;13.36;100.00;96031.59;5079582;28;20032;-77
2021/08/04 03:23:12;;;;;;;4.67;2.43;;;;;;;13.32;100.00;96041.72;5082095;28;20070;-78
2021/08/04 03:25:37;;;;;;;6.13;2.53;;;;;;;13.29;100.00;96030.69;5081386;28;20032;-78
2021/08/04 03:28:03;;;;;;;4.20;2.13;;;;;;;13.34;100.00;96039.69;5072584;28;20032;-77
2021/08/04 03:30:29;;;;;;;4.53;2.30;;;;;;;13.35;100.00;96046.63;5079702;28;20121;-77
2021/08/04 03:32:55;;;;;;;4.67;2.63;;;;;;;13.32;100.00;96033.78;5074181;28;20020;-77
2021/08/04 03:35:20;;;;;;;5.87;2.60;;;;;;;13.32;100.00;96032.97;5076048;28;20044;-77
2021/08/04 03:37:46;;;;;;;4.03;2.30;;;;;;;13.33;100.00;96032.78;5071577;28;20029;-77
2021/08/04 03:40:13;;;;;;;4.33;2.53;;;;;;;13.35;100.00;96029.97;5081407;28;20032;-77
2021/08/04 03:42:39;;;;;;;3.90;2.30;;;;;;;13.33;100.00;96029.31;5071765;28;20028;-77
2021/08/04 03:45:05;;;;;;;4.20;2.67;;;;;;;13.31;100.00;96029.53;5069832;28;22216;-78
2021/08/04 03:47:31;;;;;;;3.63;2.37;;;;;;;13.28;100.00;96035.16;5081577;28;20039;-78
2021/08/04 03:49:57;;;;;;;4.47;2.30;;;;;;;13.26;100.00;96031.06;5070001;28;20399;-78
2021/08/04 03:52:22;;;;;;;4.70;2.30;;;;;;;13.27;100.00;96030.88;5077654;28;20020;-78
2021/08/04 03:54:48;;;;;;;6.10;2.57;;;;;;;13.25;100.00;96034.72;5057339;28;20106;-77
2021/08/04 03:57:15;;;;;;;5.77;2.77;;;;;;;13.17;100.00;96035.56;5073814;28;20032;-77
2021/08/04 03:59:40;;;;;;;6.03;2.93;;;;;;;13.15;100.00;96038.38;5078717;28;20024;-78
2021/08/04 04:02:06;;;;;;;4.57;2.33;;;;;;;13.23;100.00;96040.13;5077619;28;20085;-77
2021/08/04 04:04:32;;;;;;;5.33;2.20;;;;;;;13.16;100.00;96037.38;5063395;28;20084;-78
2021/08/04 04:06:58;;;;;;;3.40;1.90;;;;;;;13.17;100.00;96038.19;5066239;28;20119;-77
2021/08/04 04:09:24;;;;;;;5.90;2.20;;;;;;;13.15;100.00;96032.28;5089943;28;20031;-77
2021/08/04 04:11:50;;;;;;;4.13;2.13;;;;;;;13.22;100.00;96035.84;5086009;28;20033;-78
2021/08/04 04:14:16;;;;;;;5.50;2.77;;;;;;;13.27;100.00;96041.44;5060903;28;20031;-77
2021/08/04 04:16:41;;;;;;;5.03;3.00;;;;;;;13.27;100.00;96038.78;5061232;28;20449;-78
2021/08/04 04:19:08;;;;;;;4.80;2.73;;;;;;;13.30;100.00;96037.59;5064998;28;20024;-78
2021/08/04 04:21:34;;;;;;;4.77;2.83;;;;;;;13.28;100.00;96035.16;5070773;28;20032;-78
2021/08/04 04:24:00;;;;;;;4.27;2.23;;;;;;;13.30;100.00;96027.03;5065273;28;20021;-77
2021/08/04 04:26:26;;;;;;;4.30;2.33;;;;;;;13.29;100.00;96033.34;5073525;28;20118;-78
2021/08/04 04:28:52;;;;;;;6.07;2.53;;;;;;;13.34;100.00;96041.53;5073478;28;20939;-77
2021/08/04 04:31:18;;;;;;;6.53;2.50;;;;;;;13.40;100.00;96040.81;5093468;28;20427;-77
2021/08/04 04:33:43;;;;;;;3.97;2.17;;;;;;;13.38;100.00;96041.00;5085029;28;20123;-78
2021/08/04 04:36:09;;;;;;;3.33;2.00;;;;;;;13.39;100.00;96042.63;5075077;28;20063;-77
2021/08/04 04:38:35;;;;;;;5.13;2.30;;;;;;;13.37;100.00;96041.97;5077348;28;20660;-77
2021/08/04 04:41:01;;;;;;;5.63;2.80;;;;;;;13.29;100.00;96039.44;5067390;28;20544;-77
2021/08/04 04:43:27;;;;;;;5.63;2.93;;;;;;;13.30;100.00;96037.59;5049563;28;20028;-77
2021/08/04 04:45:52;;;;;;;5.07;2.70;;;;;;;13.33;100.00;96042.53;5081938;28;20031;-78
2021/08/04 04:48:18;;;;;;;4.67;2.27;;;;;;;13.29;100.00;96049.19;5060007;28;20050;-78
2021/08/04 04:50:44;;;;;;;4.57;2.30;;;;;;;13.32;100.00;96051.47;5078478;28;20055;-77
2021/08/04 04:53:11;;;;;;;4.40;2.60;;;;;;;13.37;100.00;96044.63;5084112;28;20634;-78
2021/08/04 04:55:37;;;;;;;4.47;2.17;;;;;;;13.40;100.00;96048.72;5079597;28;20097;-77
2021/08/04 04:58:03;;;;;;;3.83;2.17;;;;;;;13.42;100.00;96047.56;5072836;28;20103;-78
2021/08/04 05:00:28;;;;;;;5.57;2.47;;;;;;;13.46;100.00;96048.00;5072785;28;20020;-78
2021/08/04 05:02:54;;;;;;;3.97;2.33;;;;;;;13.44;100.00;96048.16;5079578;28;20039;-78
2021/08/04 05:05:20;;;;;;;4.97;2.50;;;;;;;13.51;100.00;96053.56;5055585;28;20028;-77
2021/08/04 05:07:45;;;;;;;5.13;2.77;;;;;;;13.51;100.00;96050.09;5051095;28;20085;-78
2021/08/04 05:10:12;;;;;;;8.57;2.87;;;;;;;13.54;100.00;96049.72;5052895;28;20055;-76
2021/08/04 05:12:37;;;;;;;4.60;2.53;;;;;;;13.67;100.00;96047.28;5077973;28;20097;-77
2021/08/04 05:15:05;;;;;;;4.20;2.17;;;;;;;13.69;100.00;96053.22;5052431;28;20029;-77
2021/08/04 05:17:30;;;;;;;4.70;2.63;;;;;;;13.73;100.00;96051.00;5077738;28;20397;-77
2021/08/04 05:19:56;;;;;;;4.70;2.27;;;;;;;13.78;100.00;96048.63;5057576;28;20024;-77
2021/08/04 05:22:22;;;;;;;3.90;2.30;;;;;;;13.78;100.00;96054.75;5075462;28;20109;-77
2021/08/04 05:24:48;;;;;;;7.27;2.87;;;;;;;13.83;100.00;96049.72;5067946;28;20024;-77
2021/08/04 05:27:14;;;;;;;6.40;3.07;;;;;;;13.87;100.00;96052.81;5060771;28;20047;-77
2021/08/04 05:29:39;;;;;;;7.93;4.00;;;;;;;14.03;100.00;96054.44;5073526;28;20108;-77
2021/08/04 05:32:05;;;;;;;7.60;2.87;;;;;;;14.02;100.00;96058.09;5068878;28;20028;-78
2021/08/04 05:34:31;;;;;;;4.97;2.30;;;;;;;14.03;98.77;96063.19;5075100;28;20115;-77
2021/08/04 05:36:57;;;;;;;4.83;2.33;;;;;;;14.08;100.00;96063.47;5068173;28;20103;-78
2021/08/04 05:39:22;;;;;;;6.30;2.93;;;;;;;14.00;99.54;96060.91;5069214;28;20024;-78
2021/08/04 05:41:48;;;;;;;4.93;2.33;;;;;;;14.04;98.97;96059.53;5067913;28;20036;-78
2021/08/04 05:44:14;;;;;;;4.77;2.37;;;;;;;14.01;99.06;96062.53;5064638;28;20015;-78
2021/08/04 05:46:39;;;;;;;6.77;2.47;;;;;;;14.09;98.11;96056.34;5077388;28;20032;-77
2021/08/04 05:49:05;;;;;;;5.70;2.57;;;;;;;14.16;99.16;96054.59;5075177;28;20031;-78
2021/08/04 05:51:31;;;;;;;4.60;2.23;;;;;;;14.21;96.91;96057.50;5066661;28;20036;-77
2021/08/04 05:53:57;;;;;;;3.90;1.90;;;;;;;14.30;97.88;96061.69;5078262;28;20102;-78
2021/08/04 05:56:23;;;;;;;6.37;2.80;;;;;;;14.42;96.90;96059.38;5080680;28;20039;-78
2021/08/04 05:58:48;;;;;;;5.63;2.93;;;;;;;14.49;97.23;96059.44;5068264;28;20500;-77
2021/08/04 06:01:14;;;;;;;4.63;2.20;;;;;;;14.47;94.94;96050.88;5071120;28;20500;-77
2021/08/04 06:03:40;;;;;;;5.37;2.27;;;;;;;14.70;94.14;96050.72;5079609;28;20020;-77
2021/08/04 06:06:06;;;;;;;4.60;2.20;;;;;;;14.78;93.49;96058.53;5055006;28;20029;-77
2021/08/04 06:08:31;;;;;;;3.77;2.27;;;;;;;14.64;92.41;96054.94;5057268;28;20040;-78
2021/08/04 06:10:57;;;;;;;4.80;2.30;;;;;;;14.69;93.39;96049.06;5060958;28;20031;-78
2021/08/04 06:13:23;;;;;;;5.90;2.73;;;;;;;14.73;92.46;96040.56;5075215;28;20028;-78
2021/08/04 06:15:49;;;;;;;4.78;2.17;;;;;;;14.90;93.67;96051.72;5054867;28;20064;-77
2021/08/04 06:18:15;;;;;;;3.97;2.07;;;;;;;14.88;91.11;96052.91;5077684;28;20049;-77
2021/08/04 06:20:41;;;;;;;5.53;3.00;;;;;;;15.05;90.69;96048.97;5068665;28;20041;-77
2021/08/04 06:23:07;;;;;;;3.88;2.22;;;;;;;15.02;90.02;96049.34;5072990;28;20036;-78
2021/08/04 06:25:33;;;;;;;4.40;2.30;;;;;;;15.18;89.81;96046.44;5073600;28;20028;-77
2021/08/04 06:27:58;;;;;;;3.58;1.92;;;;;;;15.28;89.71;96049.56;5069162;28;20048;-77
2021/08/04 06:30:24;;;;;;;5.55;2.20;;;;;;;15.43;87.99;96052.13;5057227;28;20119;-77
2021/08/04 06:32:50;;;;;;;4.30;1.97;;;;;;;15.31;87.36;96051.00;5078589;28;20035;-77
2021/08/04 06:35:16;;;;;;;3.78;2.05;;;;;;;15.42;86.32;96060.25;5074102;28;20200;-77
2021/08/04 06:37:41;;;;;;;4.25;1.95;;;;;;;15.67;86.34;96050.88;5069495;28;20093;-77
2021/08/04 06:40:08;;;;;;;3.13;1.85;;;;;;;16.62;81.07;96054.50;5055301;28;20108;-76
2021/08/04 06:42:33;;;;;;;4.95;2.58;;;;;;;16.59;81.42;96052.22;5072194;28;20042;-77
2021/08/04 06:44:59;;;;;;;5.22;2.10;;;;;;;16.28;82.79;96055.44;5064840;28;20435;-77
2021/08/04 06:47:25;;;;;;;4.07;1.90;;;;;;;17.39;79.98;96050.47;5064119;28;20090;-75
2021/08/04 06:49:51;;;;;;;6.55;2.17;;;;;;;17.74;74.58;96054.69;5062313;28;20028;-76
2021/08/04 06:52:16;;;;;;;5.88;2.22;;;;;;;17.04;78.01;96065.81;5063331;28;20029;-77
2021/08/04 06:54:42;;;;;;;3.85;1.83;;;;;;;16.67;79.37;96060.03;5067617;28;20037;-77
2021/08/04 06:57:08;;;;;;;4.53;2.05;;;;;;;16.56;79.03;96068.56;5071510;28;20025;-77
2021/08/04 06:59:33;;;;;;;4.47;1.88;;;;;;;16.45;80.10;96067.31;5050398;28;20079;-77
2021/08/04 07:02:01;;;;;;;3.25;1.83;;;;;;;16.52;80.81;96072.63;5092483;28;20048;-77
2021/08/04 07:04:29;;;;;;;2.40;1.48;;;;;;;16.47;80.77;96075.91;5069787;28;20028;-77
2021/08/04 07:06:56;;;;;;;5.80;2.42;;;;;;;16.27;79.89;96077.69;5079328;28;20101;-77
2021/08/04 07:09:22;;;;;;;3.78;1.90;;;;;;;16.41;80.20;96081.19;5074920;28;20034;-77
2021/08/04 07:11:49;;;;;;;3.42;1.70;;;;;;;16.64;78.22;96073.69;5079281;28;20503;-78
2021/08/04 07:14:17;;;;;;;4.35;1.60;;;;;;;16.51;79.47;96081.63;5070904;28;20067;-78
2021/08/04 07:16:48;;;;;;;9.32;5.20;;;;;;;16.89;78.68;96068.66;5079573;28;20039;-77
2021/08/04 07:19:14;;;;;;;4.63;1.88;;;;;;;17.02;77.14;96072.34;5080685;28;20064;-78
2021/08/04 07:21:41;;;;;;;4.93;1.70;;;;;;;17.22;75.52;96075.03;5049255;28;20025;-78
2021/08/04 07:24:08;;;;;;;3.35;1.75;;;;;;;17.50;74.47;96070.28;5081835;28;20469;-78
2021/08/04 07:26:39;;;;;;;3.92;2.05;;;;;;;17.77;72.27;96067.59;5086216;28;20032;-78
2021/08/04 07:29:06;;;;;;;3.17;1.88;;;;;;;17.78;73.49;96069.25;5070756;28;20024;-78
2021/08/04 07:31:33;;;;;;;4.80;2.05;;;;;;;17.78;72.64;96072.75;5074128;28;20047;-78
2021/08/04 07:33:58;;;;;;;4.40;1.85;;;;;;;17.64;70.81;96076.44;5083388;28;20051;-78
2021/08/04 07:36:24;;;;;;;5.60;2.03;;;;;;;17.44;72.00;96079.91;5051820;28;20470;-78
2021/08/04 07:38:50;;;;;;;4.57;2.25;;;;;;;17.86;71.71;96072.50;5064958;28;20040;-78
2021/08/04 07:41:16;;;;;;;8.52;1.88;;;;;;;18.62;69.20;96070.97;5070814;28;20035;-79
2021/08/04 07:43:42;;;;;;;2.85;1.70;;;;;;;18.43;70.31;96072.69;5081945;28;20098;-78
2021/08/04 07:46:08;;;;;;;3.15;1.40;;;;;;;18.87;66.09;96064.91;5080662;28;20500;-78
2021/08/04 07:48:35;;;;;;;3.95;1.77;;;;;;;18.58;66.39;96061.78;5083159;28;20025;-78
2021/08/04 07:51:02;;;;;;;3.50;2.03;;;;;;;18.72;65.55;96062.56;5078508;28;20480;-79
2021/08/04 07:53:29;;;;;;;3.92;1.88;;;;;;;18.83;66.24;96061.84;5074637;28;20092;-79
2021/08/04 07:55:55;;;;;;;3.40;1.92;;;;;;;19.17;65.50;96070.44;5085960;28;20036;-78
2021/08/04 07:58:20;;;;;;;4.03;1.88;;;;;;;19.11;64.75;96071.28;5079234;28;20033;-79
2021/08/04 08:00:46;;;;;;;3.60;2.17;;;;;;;19.62;64.77;96073.75;5082755;28;20027;-79
2021/08/04 08:03:12;;;;;;;3.40;1.65;;;;;;;20.14;63.35;96062.75;5079321;28;20125;-79
2021/08/04 08:05:38;;;;;;;2.72;1.75;;;;;;;19.86;61.79;96065.94;5068667;28;20090;-79
2021/08/04 08:08:04;;;;;;;3.67;1.88;;;;;;;18.99;63.45;96071.19;5080315;28;20068;-79
2021/08/04 08:10:36;;;;;;;6.13;2.40;;;;;;;18.89;64.50;96066.34;5083944;28;20037;-80
2021/08/04 08:13:03;;;;;;;3.15;1.88;;;;;;;20.20;61.98;96059.19;5073857;28;20033;-79
2021/08/04 08:15:29;;;;;;;4.03;2.08;;;;;;;21.11;57.29;96050.13;5074537;28;20020;-79
2021/08/04 08:17:55;;;;;;;5.10;1.75;;;;;;;21.49;55.62;96054.25;5086884;28;20029;-78
2021/08/04 08:20:21;;;;;;;3.10;1.50;;;;;;;23.00;50.94;96032.72;5075546;28;20032;-78
2021/08/04 08:22:48;;;;;;;3.28;1.75;;;;;;;23.30;51.02;96032.38;5077450;28;20025;-78
2021/08/04 08:25:22;;;;;;;5.68;1.75;;;;;;;23.35;48.28;96030.84;5072378;28;20491;-78
2021/08/04 08:27:49;;;;;;;5.43;1.90;;;;;;;22.65;50.83;96030.19;5082751;28;20047;-77
2021/08/04 08:30:14;;;;;;;2.88;1.67;;;;;;;21.60;53.75;96040.09;5062296;28;20020;-78
2021/08/04 08:32:41;;;;;;;4.10;2.40;;;;;;;21.32;52.97;96048.75;5079829;28;20028;-78
2021/08/04 08:35:08;;;;;;;3.88;1.98;;;;;;;22.32;48.96;96039.75;5075743;28;20024;-78
2021/08/04 08:37:34;;;;;;;4.50;1.50;;;;;;;22.47;50.94;96031.19;5052566;28;20090;-78
2021/08/04 08:40:00;;;;;;;3.08;1.55;;;;;;;22.81;47.48;96026.72;5085171;28;20024;-78
2021/08/04 08:42:26;;;;;;;4.90;2.00;;;;;;;23.30;45.97;96032.38;5076257;28;20078;-78
2021/08/04 08:44:52;;;;;;;3.08;1.55;;;;;;;22.01;50.78;96042.84;5071907;28;20028;-79
2021/08/04 08:47:19;;;;;;;2.53;1.48;;;;;;;22.41;47.93;96039.38;5059563;28;20046;-78
2021/08/04 08:49:48;;;;;;;2.88;1.50;;;;;;;21.56;50.02;96038.94;5074474;28;20024;-78
2021/08/04 08:52:14;;;;;;;2.70;1.40;;;;;;;21.66;50.80;96035.66;5073908;28;20086;-78
2021/08/04 08:54:40;;;;;;;2.97;1.58;;;;;;;20.94;52.67;96041.97;5063479;28;20025;-77
2021/08/04 08:57:05;;;;;;;1.85;1.05;;;;;;;20.52;53.41;96038.44;5069600;28;20044;-78
2021/08/04 08:59:31;;;;;;;2.30;1.15;;;;;;;20.83;53.25;96040.09;5056451;28;20020;-78
2021/08/04 09:01:57;;;;;;;6.68;4.28;;;;;;;22.12;50.00;96034.75;5067198;28;20037;-77
2021/08/04 09:04:22;;;;;;;2.53;1.33;;;;;;;21.83;51.02;96033.06;5071507;28;20021;-78
2021/08/04 09:06:57;;;;;;;2.60;1.40;;;;;;;21.35;51.15;96048.31;5073665;28;20508;-77
2021/08/04 09:09:25;;;;;;;3.28;1.20;;;;;;;20.51;52.57;96044.84;5075085;28;20031;-78
2021/08/04 09:12:09;;;;;;;2.33;1.20;;;;;;;21.01;52.86;96043.72;5066022;28;20489;-79
2021/08/04 09:14:37;;;;;;;2.08;1.30;;;;;;;21.02;51.46;96040.81;5074785;28;20048;-79
2021/08/04 09:17:06;;;;;;;3.47;1.95;;;;;;;21.09;53.38;96040.69;5072811;28;20084;-79
2021/08/04 09:19:35;;;;;;;2.00;1.15;;;;;;;21.06;52.72;96041.16;5085300;28;20042;-78
2021/08/04 09:22:07;;;;;;;2.58;1.20;;;;;;;20.87;51.87;96029.75;5065655;28;20084;-77
2021/08/04 09:24:53;;;;;;;2.72;1.17;;;;;;;21.76;48.70;96035.88;5075408;28;20064;-77
2021/08/04 09:27:19;;;;;;;3.53;1.60;;;;;;;22.05;49.79;96027.91;5055426;28;20067;-77
2021/08/04 09:30:00;;;;;;;3.25;1.67;;;;;;;21.81;50.93;96024.47;5071369;28;20024;-77
2021/08/04 09:32:31;;;;;;;2.08;1.38;;;;;;;21.71;51.40;96025.06;5078356;28;20115;-77
2021/08/04 09:35:06;;;;;;;2.47;1.33;;;;;;;22.04;51.14;96019.06;5076194;28;20037;-75
2021/08/04 09:37:32;;;;;;;4.15;2.33;;;;;;;22.43;49.51;96007.78;5065712;28;20043;-77
2021/08/04 09:40:00;;;;;;;6.05;1.55;;;;;;;21.82;52.10;96018.88;5053741;28;20021;-77
2021/08/04 09:42:49;;;;;;;3.17;1.40;;;;;;;21.20;52.90;96015.84;5055186;28;20619;-78
2021/08/04 09:45:19;;;;;;;2.03;1.30;;;;;;;20.55;53.96;96018.50;5065722;28;20127;-78
2021/08/04 09:48:02;;;;;;;3.17;1.60;;;;;;;20.64;54.22;96006.44;5076481;28;20032;-78
2021/08/04 09:50:43;;;;;;;2.70;1.45;;;;;;;20.80;53.98;96003.13;5077888;28;20068;-78
2021/08/04 09:53:09;;;;;;;2.60;1.50;;;;;;;20.84;55.55;95998.94;5072964;28;20061;-77
2021/08/04 09:55:35;;;;;;;3.72;1.38;;;;;;;20.96;56.18;96012.34;5074550;28;20032;-78
2021/08/04 09:58:02;;;;;;;2.83;1.40;;;;;;;21.00;55.13;95999.31;5072218;28;20033;-78
2021/08/04 10:00:28;;;;;;;3.00;1.70;;;;;;;20.40;55.68;96001.00;5079333;28;20044;-78
2021/08/04 10:03:10;;;;;;;2.70;1.42;;;;;;;20.29;54.47;96007.13;5078592;28;20032;-78
2021/08/04 10:05:42;;;;;;;2.85;1.45;;;;;;;19.47;57.19;96007.41;5077040;28;20043;-78
2021/08/04 10:08:13;;;;;;;2.42;1.60;;;;;;;19.15;59.23;96008.50;5065194;28;20102;-78
2021/08/04 10:10:53;;;;;;;3.22;1.80;;;;;;;18.56;60.76;96000.72;5068949;28;20116;-78
2021/08/04 10:13:31;;;;;;;3.05;1.73;;;;;;;18.77;60.99;96001.44;5075849;28;20029;-78
2021/08/04 10:15:59;;;;;;;3.38;1.80;;;;;;;19.04;59.72;96005.53;5076529;28;20126;-77
2021/08/04 10:18:27;;;;;;;2.92;1.60;;;;;;;18.79;59.86;95997.53;5078834;28;20043;-77
2021/08/04 10:21:00;;;;;;;3.85;2.20;;;;;;;18.53;60.94;96000.34;5076045;28;20043;-78
2021/08/04 10:23:27;;;;;;;3.13;1.63;;;;;;;18.60;61.24;95999.25;5064364;28;20493;-77
2021/08/04 10:25:55;;;;;;;7.53;3.53;;;;;;;18.79;62.04;96002.84;5068278;28;20028;-78
2021/08/04 10:28:22;;;;;;;4.50;2.22;;;;;;;18.20;63.56;96005.84;5059861;28;20124;-77
2021/08/04 10:30:48;;;;;;;3.47;1.73;;;;;;;18.18;64.45;96011.41;5075525;28;20538;-77
2021/08/04 10:33:14;;;;;;;4.57;1.90;;;;;;;17.93;65.46;96015.81;5072869;28;20062;-77
2021/08/04 10:35:56;;;;;;;4.22;2.10;;;;;;;18.05;64.91;96008.81;5072086;28;20071;-77
2021/08/04 10:38:24;;;;;;;3.28;1.63;;;;;;;17.94;65.52;96012.09;5071318;28;20036;-78
2021/08/04 10:41:10;;;;;;;4.88;2.05;;;;;;;18.00;65.46;96006.75;5065329;28;20040;-77
2021/08/04 10:43:47;;;;;;;6.00;2.33;;;;;;;17.75;65.83;96008.47;5076692;28;20032;-77
2021/08/04 10:46:31;;;;;;;6.80;2.20;;;;;;;18.05;66.16;96004.28;5074901;28;20478;-77
2021/08/04 10:49:06;;;;;;;3.72;1.90;;;;;;;17.74;66.31;96001.50;5078920;28;20036;-77
2021/08/04 10:51:35;;;;;;;5.38;2.17;;;;;;;18.18;65.72;95992.78;5070059;28;20036;-77
2021/08/04 10:54:01;;;;;;;4.28;1.70;;;;;;;18.18;65.37;95990.13;5062219;28;20024;-77
2021/08/04 10:56:37;;;;;;;4.68;1.90;;;;;;;18.30;65.24;95988.38;5077004;28;20128;-77
2021/08/04 10:59:09;;;;;;;4.28;1.60;;;;;;;18.56;64.87;95981.28;5071249;28;20464;-77
2021/08/04 11:01:38;;;;;;;4.80;1.60;;;;;;;18.47;63.88;95979.91;5076652;28;20032;-77
2021/08/04 11:04:06;;;;;;;3.55;1.63;;;;;;;18.46;63.95;95976.44;5080773;28;20044;-77
2021/08/04 11:06:32;;;;;;;2.80;1.65;;;;;;;18.47;65.38;95970.06;5085471;28;20113;-77
2021/08/04 11:09:12;;;;;;;6.82;1.60;;;;;;;18.69;65.16;95964.41;5084251;28;20035;-78
2021/08/04 11:11:52;;;;;;;4.70;2.25;;;;;;;18.66;65.02;95967.50;5085852;28;20828;-77
2021/08/04 11:14:39;;;;;;;3.83;1.60;;;;;;;19.08;62.42;95956.09;5067288;28;20146;-77
2021/08/04 11:17:08;;;;;;;2.95;1.65;;;;;;;20.05;59.21;95954.63;5081667;28;20039;-77
2021/08/04 11:20:09;;;;;;;3.90;1.70;;;;;;;19.95;59.77;95956.00;5079523;28;20020;-78
2021/08/04 11:22:34;;;;;;;6.28;1.85;;;;;;;21.07;57.22;95954.56;5058272;28;20025;-77
2021/08/04 11:25:10;;;;;;;4.38;1.80;;;;;;;19.79;60.02;95956.63;5073597;28;20092;-78
2021/08/04 11:27:45;;;;;;;4.28;1.98;;;;;;;20.23;59.08;95947.41;5070604;28;20062;-77
2021/08/04 11:30:14;;;;;;;4.05;1.70;;;;;;;19.94;57.03;95957.03;5053447;28;20330;-77
2021/08/04 11:32:39;;;;;;;3.45;1.40;;;;;;;19.87;56.69;95953.63;5067861;28;20036;-78
2021/08/04 11:35:16;;;;;;;4.05;1.33;;;;;;;20.49;55.25;95951.56;5067651;28;20085;-77